dokoaa.com alexa rank chart, dokoaa.com alexa rank daily changes

dokoaa.com alexa rank chart, dokoaa.com alexa rank daily changes

dokoaa.com
Actual rank:
325 288

RANK HISTORY

Date Rank Diff
2017/07/27 325 288 +37 907
2017/07/26 287 381 +1 340
2017/07/25 286 041 -11 582
2017/07/24 297 623 -14 035
2017/07/23 311 658 +27 213
2017/07/22 284 445 +18 740
2017/07/21 265 705 -216
2017/07/20 265 921 +2 624
2017/07/19 263 297 +2 140
2017/07/18 261 157 -10 332
2017/07/17 271 489 -1 260
2017/07/16 272 749 +6 587
2017/07/15 266 162 -250
2017/07/14 266 412 -232
2017/07/13 266 644 -6 362
2017/07/12 273 006 -3 689
2017/07/11 276 695 +5 929
2017/07/10 270 766 +13 244
2017/07/09 257 522 +6 405
2017/07/08 251 117 -214
2017/07/07 251 331 -6 786
2017/07/06 258 117 +692
2017/07/05 257 425 +9 377
2017/07/04 248 048 +17 236
2017/07/03 230 812 +4 602
2017/07/02 226 210 -5 730
2017/07/01 231 940 -12 033
2017/06/30 243 973 -2 270
2017/06/29 246 243 +2 941
2017/06/28 243 302 +758
2017/06/27 242 544 -11 003
2017/06/26 253 547 -941
2017/06/25 254 488 -349
2017/06/24 254 837 +12 905
2017/06/23 241 932 -15 952
2017/06/22 257 884 -15 617
2017/06/21 273 501 +919
2017/06/20 272 582 -2 628
2017/06/19 275 210 -11 392
2017/06/18 286 602 +15 152
2017/06/17 271 450 +19 869
2017/06/16 251 581 -11 997
2017/06/15 263 578 +11 445
2017/06/14 252 133 +577
2017/06/13 251 556 +5 132
2017/06/12 246 424 -9 111
2017/06/11 255 535 +1 315
2017/06/10 254 220 -7 093
2017/06/09 261 313 -6 280
2017/06/08 267 593 +9 999
2017/06/07 257 594 +370
2017/06/06 257 224 +7 789
2017/06/05 249 435 -9 105
2017/06/04 258 540 -14 494
2017/06/03 273 034 -7 867
2017/06/02 280 901 +854
2017/06/01 280 047 -311
2017/05/31 280 358 +914
2017/05/30 279 444 -22 430
2017/05/29 301 874 -4 460
2017/05/28 306 334

WIDGET FOR YOUR SITE

DOMAINS WITH THE NEAREST RANK

Domain Rank
86db.com 325 283
ihanami.com 325 284
cleverwoodprojects.tumblr.com 325 285
thawratalweb.com 325 286
tussam.es 325 287
dokoaa.com 325 288
brandnewcongress.org 325 289
2017worldtaekwondo.com 325 290
sshagan.net 325 291
kineticvas.com 325 292
wdtest2.com 325 293

DOMAINS WITH THE NEAREST RANK BY TLD .com

Domain Rank
videomateur.com 325 280
colfert.com 325 281
86db.com 325 283
ihanami.com 325 284
thawratalweb.com 325 286
dokoaa.com 325 288
2017worldtaekwondo.com 325 290
kineticvas.com 325 292
wdtest2.com 325 293
s-models.com 325 296
careersathca.com 325 298